Time;durP1;ratioP1;P1;durP2;ratioP2;P2;SDS_P1;SDS_P2;PMS_P1;PMS_P2;Temp;Humidity;BMP_temperature;BMP_pressure;BME280_temperature;BME280_humidity;BME280_pressure;Samples;Min_cycle;Max_cycle;Signal;HPM_P1;HPM_P2
2021/05/08 00:00:19;;;;;;;11.43;6.97;;;7.40;1.00;;;;;;5029691;28;20200;-52
2021/05/08 00:02:46;;;;;;;8.87;6.90;;;7.30;1.00;;;;;;5033463;28;20209;-51
2021/05/08 00:05:13;;;;;;;9.50;7.20;;;7.30;1.00;;;;;;5035109;28;20677;-52
2021/05/08 00:07:40;;;;;;;10.00;7.10;;;7.30;1.00;;;;;;5033794;28;20340;-52
2021/05/08 00:10:08;;;;;;;8.10;6.57;;;7.30;1.00;;;;;;5036547;28;20644;-52
2021/05/08 00:12:35;;;;;;;8.57;7.37;;;7.20;1.00;;;;;;5036062;28;20208;-52
2021/05/08 00:15:02;;;;;;;9.80;7.00;;;7.20;1.00;;;;;;5029879;28;20661;-52
2021/05/08 00:17:29;;;;;;;9.53;6.87;;;7.20;99.90;;;;;;5030135;28;20235;-51
2021/05/08 00:19:55;;;;;;;9.23;6.97;;;7.20;1.00;;;;;;5035868;28;20241;-52
2021/05/08 00:22:22;;;;;;;12.17;7.20;;;7.20;1.00;;;;;;5036482;28;20220;-51
2021/05/08 00:24:49;;;;;;;10.33;7.70;;;7.20;1.00;;;;;;5035855;28;20290;-52
2021/05/08 00:27:15;;;;;;;11.23;7.07;;;7.20;1.00;;;;;;5037141;28;20236;-52
2021/05/08 00:29:42;;;;;;;9.60;7.43;;;7.20;1.00;;;;;;5035176;28;20210;-52
2021/05/08 00:32:08;;;;;;;9.13;6.70;;;7.20;1.00;;;;;;5036823;28;20648;-52
2021/05/08 00:34:35;;;;;;;8.40;6.87;;;7.20;99.90;;;;;;5033923;28;20203;-53
2021/05/08 00:37:02;;;;;;;10.90;7.03;;;7.20;99.90;;;;;;5035621;28;20201;-52
2021/05/08 00:39:28;;;;;;;9.70;7.07;;;7.10;99.90;;;;;;5035005;28;20222;-52
2021/05/08 00:41:55;;;;;;;8.20;6.77;;;7.10;25.10;;;;;;5040395;28;20374;-52
2021/05/08 00:44:21;;;;;;;10.20;7.23;;;7.10;36.60;;;;;;5038906;28;20246;-52
2021/05/08 00:46:48;;;;;;;9.47;7.37;;;7.20;1.00;;;;;;5039304;28;20207;-52
2021/05/08 00:49:16;;;;;;;10.17;7.57;;;7.20;99.90;;;;;;5039179;28;20240;-52
2021/05/08 00:51:42;;;;;;;11.57;7.53;;;7.30;99.90;;;;;;5039387;28;20234;-52
2021/05/08 00:54:09;;;;;;;14.10;8.03;;;7.40;1.00;;;;;;5038821;28;20726;-52
2021/05/08 00:56:35;;;;;;;11.03;7.17;;;7.50;55.50;;;;;;5040364;28;20629;-52
2021/05/08 00:59:02;;;;;;;9.33;7.00;;;7.50;1.00;;;;;;5038510;28;20252;-53
2021/05/08 01:01:28;;;;;;;9.23;7.30;;;7.50;12.40;;;;;;5039366;28;20323;-52
2021/05/08 01:03:54;;;;;;;9.87;7.20;;;7.60;1.00;;;;;;5040004;28;20208;-52
2021/05/08 01:06:21;;;;;;;10.27;7.57;;;7.70;1.00;;;;;;5042035;28;20209;-52
2021/05/08 01:08:48;;;;;;;11.23;8.03;;;7.70;99.90;;;;;;5039715;28;20700;-52
2021/05/08 01:11:15;;;;;;;8.50;7.27;;;7.70;1.00;;;;;;5041144;28;20308;-52
2021/05/08 01:13:42;;;;;;;14.37;8.07;;;7.70;1.00;;;;;;5039022;28;20724;-52
2021/05/08 01:16:09;;;;;;;11.07;7.67;;;7.70;99.90;;;;;;5039963;28;20242;-52
2021/05/08 01:18:35;;;;;;;10.43;6.80;;;7.80;1.00;;;;;;5039157;28;20653;-52
2021/05/08 01:21:02;;;;;;;11.93;7.30;;;7.70;1.00;;;;;;5033827;28;20230;-52
2021/05/08 01:23:29;;;;;;;9.13;6.93;;;7.80;1.00;;;;;;5038790;28;20215;-52
2021/05/08 01:25:56;;;;;;;9.53;7.10;;;7.70;99.90;;;;;;5038614;28;20288;-52
2021/05/08 01:28:22;;;;;;;9.80;6.20;;;7.70;99.90;;;;;;5039704;28;20326;-52
2021/05/08 01:30:48;;;;;;;8.63;6.53;;;7.80;1.00;;;;;;5039074;28;20658;-52
2021/05/08 01:33:15;;;;;;;9.60;6.27;;;7.80;99.90;;;;;;5038528;28;20766;-52
2021/05/08 01:35:41;;;;;;;9.17;6.33;;;7.80;99.90;;;;;;5039443;28;20327;-52
2021/05/08 01:38:07;;;;;;;10.87;7.13;;;7.80;1.00;;;;;;5038660;28;20235;-52
2021/05/08 01:40:40;;;;;;;8.40;6.60;;;7.80;45.60;;;;;;5039289;28;20270;-52
2021/05/08 01:43:07;;;;;;;9.47;6.37;;;7.80;1.00;;;;;;5038423;28;20306;-52
2021/05/08 01:45:33;;;;;;;10.13;6.67;;;7.70;1.00;;;;;;5038458;28;20239;-52
2021/05/08 01:48:02;;;;;;;7.93;5.73;;;7.80;1.00;;;;;;5032492;28;20280;-52
2021/05/08 01:50:29;;;;;;;7.30;5.93;;;7.80;99.90;;;;;;5039343;28;20203;-52
2021/05/08 01:52:55;;;;;;;8.23;5.97;;;7.80;99.90;;;;;;5037050;28;20544;-52
2021/05/08 01:55:27;;;;;;;8.43;6.43;;;7.80;1.00;;;;;;5038398;28;20207;-52
2021/05/08 01:57:58;;;;;;;8.23;6.20;;;7.80;1.00;;;;;;5038333;28;20685;-52
2021/05/08 02:00:32;;;;;;;8.30;6.00;;;7.90;1.00;;;;;;5036466;28;20240;-52
2021/05/08 02:02:59;;;;;;;8.13;6.30;;;7.90;1.00;;;;;;5038463;28;20527;-52
2021/05/08 02:05:31;;;;;;;7.77;5.57;;;7.90;1.00;;;;;;5038112;28;20206;-52
2021/05/08 02:08:02;;;;;;;8.47;6.30;;;7.90;99.90;;;;;;5038578;28;20216;-52
2021/05/08 02:10:30;;;;;;;6.70;5.73;;;7.90;94.00;;;;;;5037963;28;20625;-52
2021/05/08 02:12:57;;;;;;;6.13;5.50;;;8.00;1.00;;;;;;5038770;28;20207;-52
2021/05/08 02:15:23;;;;;;;7.63;6.30;;;8.00;1.00;;;;;;5037130;28;20251;-52
2021/05/08 02:17:50;;;;;;;6.90;5.27;;;7.90;1.00;;;;;;5038409;28;20231;-52
2021/05/08 02:20:23;;;;;;;6.33;5.50;;;7.90;1.00;;;;;;5032489;28;20234;-52
2021/05/08 02:22:50;;;;;;;8.00;5.70;;;8.00;1.00;;;;;;5038813;28;21087;-52
2021/05/08 02:25:17;;;;;;;7.30;5.13;;;8.00;1.00;;;;;;5031806;28;20270;-52
2021/05/08 02:27:44;;;;;;;8.00;5.63;;;8.00;1.00;;;;;;5032924;28;20263;-52
2021/05/08 02:30:13;;;;;;;5.87;4.90;;;7.90;1.00;;;;;;5036674;28;20631;-52
2021/05/08 02:32:40;;;;;;;6.77;5.27;;;7.90;99.90;;;;;;5037631;28;20566;-52
2021/05/08 02:35:08;;;;;;;9.23;5.30;;;7.80;99.90;;;;;;5037163;28;20301;-52
2021/05/08 02:37:35;;;;;;;10.73;5.37;;;7.80;99.90;;;;;;5037994;28;20210;-52
2021/05/08 02:40:03;;;;;;;6.57;5.03;;;7.80;1.00;;;;;;5035530;28;20648;-52
2021/05/08 02:42:29;;;;;;;6.20;4.53;;;7.70;1.00;;;;;;5032376;28;20560;-52
2021/05/08 02:44:56;;;;;;;7.43;4.80;;;7.80;1.00;;;;;;5036712;28;20214;-52
2021/05/08 02:47:23;;;;;;;7.20;4.53;;;7.80;1.00;;;;;;5037557;28;20331;-52
2021/05/08 02:49:51;;;;;;;6.90;4.60;;;7.80;1.00;;;;;;5038566;28;20518;-52
2021/05/08 02:52:17;;;;;;;5.33;4.23;;;7.80;1.00;;;;;;5037050;28;20234;-52
2021/05/08 02:54:45;;;;;;;7.73;4.80;;;7.80;99.90;;;;;;5036778;28;20203;-52
2021/05/08 02:57:12;;;;;;;7.87;4.27;;;7.80;99.90;;;;;;5033510;28;20658;-52
2021/05/08 02:59:38;;;;;;;7.50;4.70;;;7.80;1.00;;;;;;5034837;28;20592;-52
2021/05/08 03:02:05;;;;;;;5.43;4.40;;;7.80;99.90;;;;;;5036328;28;20685;-52
2021/05/08 03:04:32;;;;;;;5.43;4.10;;;7.60;1.00;;;;;;5037254;28;20209;-52
2021/05/08 03:07:01;;;;;;;6.30;4.37;;;7.60;1.00;;;;;;5037968;28;20231;-52
2021/05/08 03:09:28;;;;;;;4.73;3.77;;;7.70;99.90;;;;;;5035754;28;20227;-52
2021/05/08 03:11:55;;;;;;;6.47;4.07;;;7.70;99.90;;;;;;5037377;28;20633;-52
2021/05/08 03:14:22;;;;;;;5.90;4.13;;;7.60;3.30;;;;;;5036699;28;20213;-52
2021/05/08 03:17:01;;;;;;;6.37;4.20;;;7.60;1.00;;;;;;5035569;28;20212;-52
2021/05/08 03:19:36;;;;;;;6.97;3.43;;;7.60;1.00;;;;;;5036709;28;20225;-52
2021/05/08 03:22:03;;;;;;;5.70;4.33;;;7.60;46.30;;;;;;5036506;28;20237;-52
2021/05/08 03:24:30;;;;;;;10.30;3.67;;;7.70;1.00;;;;;;5036279;28;20202;-52
2021/05/08 03:26:56;;;;;;;6.27;4.23;;;7.70;1.00;;;;;;5036936;28;20255;-52
2021/05/08 03:29:22;;;;;;;4.63;4.00;;;7.70;1.00;;;;;;5036163;28;20215;-52
2021/05/08 03:31:49;;;;;;;5.73;3.40;;;7.70;1.00;;;;;;5034733;28;20207;-52
2021/05/08 03:34:15;;;;;;;5.27;4.07;;;7.70;99.90;;;;;;5037612;28;20665;-52
2021/05/08 03:36:41;;;;;;;6.60;3.70;;;7.60;1.00;;;;;;5033702;28;20278;-52
2021/05/08 03:39:08;;;;;;;8.80;4.10;;;7.50;99.90;;;;;;5037458;28;20234;-53
2021/05/08 03:41:34;;;;;;;6.50;4.20;;;7.60;99.90;;;;;;5036067;28;20210;-52
2021/05/08 03:44:00;;;;;;;5.13;3.60;;;7.60;99.90;;;;;;5036576;28;20262;-52
2021/05/08 03:46:27;;;;;;;4.70;3.63;;;7.50;99.90;;;;;;5034415;28;20250;-52
2021/05/08 03:48:53;;;;;;;4.77;3.37;;;7.50;99.90;;;;;;5031492;28;20213;-53
2021/05/08 03:51:23;;;;;;;5.97;3.73;;;7.50;1.00;;;;;;5035220;28;20211;-52
2021/05/08 03:53:51;;;;;;;6.43;3.53;;;7.50;99.90;;;;;;5036175;28;20240;-52
2021/05/08 03:56:18;;;;;;;6.63;4.30;;;7.50;99.90;;;;;;5029744;28;20279;-52
2021/05/08 03:58:44;;;;;;;3.77;3.20;;;7.40;99.90;;;;;;5036233;28;20210;-52
2021/05/08 04:01:10;;;;;;;5.30;3.83;;;7.40;99.90;;;;;;5034134;28;20304;-52
2021/05/08 04:03:37;;;;;;;6.30;3.97;;;7.30;99.90;;;;;;5036792;28;20249;-52
2021/05/08 04:06:03;;;;;;;7.17;4.00;;;7.40;99.90;;;;;;5033719;28;20214;-52
2021/05/08 04:08:30;;;;;;;4.50;3.63;;;7.30;99.90;;;;;;5033086;28;20273;-52
2021/05/08 04:10:56;;;;;;;5.17;4.53;;;7.20;99.90;;;;;;5036132;28;20209;-52
2021/05/08 04:13:22;;;;;;;4.70;4.17;;;7.10;1.00;;;;;;5036562;28;20238;-52
2021/05/08 04:15:49;;;;;;;5.00;4.40;;;7.20;99.90;;;;;;5037219;28;20782;-52
2021/05/08 04:18:16;;;;;;;7.23;4.47;;;7.30;1.00;;;;;;5041300;28;20299;-52
2021/05/08 04:20:45;;;;;;;6.67;4.43;;;7.30;99.90;;;;;;5036592;28;20707;-52
2021/05/08 04:23:11;;;;;;;6.40;3.70;;;7.20;1.00;;;;;;5042385;28;20222;-52
2021/05/08 04:25:38;;;;;;;4.10;3.40;;;7.30;99.90;;;;;;5043697;28;20929;-52
2021/05/08 04:28:08;;;;;;;6.20;4.63;;;7.40;99.90;;;;;;5042213;28;20664;-52
2021/05/08 04:30:34;;;;;;;6.73;4.83;;;7.40;99.90;;;;;;5042432;28;20518;-52
2021/05/08 04:33:16;;;;;;;10.27;4.70;;;7.50;57.10;;;;;;5041670;28;20208;-52
2021/05/08 04:35:43;;;;;;;6.13;4.40;;;7.50;66.40;;;;;;5037938;28;20310;-52
2021/05/08 04:38:09;;;;;;;7.70;4.67;;;7.50;1.00;;;;;;5042420;28;20239;-52
2021/05/08 04:40:35;;;;;;;8.10;4.77;;;7.40;99.90;;;;;;5043355;28;20263;-52
2021/05/08 04:43:02;;;;;;;7.43;4.83;;;7.30;99.90;;;;;;5042121;28;20215;-52
2021/05/08 04:45:28;;;;;;;6.77;5.17;;;7.40;1.00;;;;;;5046560;28;20251;-52
2021/05/08 04:47:57;;;;;;;6.13;5.10;;;7.50;99.90;;;;;;5046508;28;20572;-51
2021/05/08 04:50:25;;;;;;;8.13;5.13;;;7.50;99.90;;;;;;5047827;28;20206;-51
2021/05/08 04:52:53;;;;;;;8.03;4.97;;;7.40;99.90;;;;;;5044301;28;20200;-52
2021/05/08 04:55:20;;;;;;;7.33;5.40;;;7.50;99.90;;;;;;5042699;28;20204;-52
2021/05/08 04:57:48;;;;;;;7.33;4.77;;;7.50;99.90;;;;;;5042744;28;20725;-52
2021/05/08 05:00:15;;;;;;;5.87;4.50;;;7.60;99.90;;;;;;5036534;28;20608;-52
2021/05/08 05:02:43;;;;;;;6.47;5.13;;;7.60;1.00;;;;;;5042593;28;20211;-52
2021/05/08 05:05:11;;;;;;;7.37;5.10;;;7.70;1.00;;;;;;5042792;28;20248;-52
2021/05/08 05:07:38;;;;;;;7.77;5.33;;;7.70;99.90;;;;;;5042261;28;20597;-53
2021/05/08 05:10:05;;;;;;;7.57;4.73;;;7.80;99.90;;;;;;5041495;28;20211;-51
2021/05/08 05:12:31;;;;;;;7.07;5.50;;;7.80;99.90;;;;;;5042402;28;20246;-52
2021/05/08 05:14:58;;;;;;;5.43;4.93;;;7.70;99.90;;;;;;5041983;28;20206;-52
2021/05/08 05:17:24;;;;;;;7.40;5.07;;;7.70;1.00;;;;;;5036147;28;20698;-52
2021/05/08 05:19:52;;;;;;;7.30;4.97;;;7.70;99.90;;;;;;5042752;28;20273;-52
2021/05/08 05:22:18;;;;;;;7.10;4.87;;;7.80;1.00;;;;;;5040303;28;20230;-52
2021/05/08 05:24:45;;;;;;;7.83;5.63;;;7.80;1.00;;;;;;5042797;28;20288;-52
2021/05/08 05:27:11;;;;;;;8.27;5.30;;;7.90;1.00;;;;;;5040666;28;20259;-52
2021/05/08 05:29:37;;;;;;;6.93;4.97;;;7.80;1.00;;;;;;5038449;28;20380;-52
2021/05/08 05:32:04;;;;;;;8.40;5.97;;;7.70;99.90;;;;;;5033309;28;20276;-52
2021/05/08 05:34:30;;;;;;;9.13;5.57;;;7.80;1.00;;;;;;5039082;28;20208;-52
2021/05/08 05:36:57;;;;;;;6.27;5.40;;;7.90;1.00;;;;;;5038932;28;20243;-52
2021/05/08 05:39:23;;;;;;;6.67;5.40;;;7.90;1.00;;;;;;5038176;28;20323;-52
2021/05/08 05:41:50;;;;;;;7.23;5.53;;;7.90;1.00;;;;;;5039812;28;20236;-52
2021/05/08 05:44:16;;;;;;;8.80;5.50;;;7.90;1.00;;;;;;5033359;28;20215;-52
2021/05/08 05:46:42;;;;;;;6.87;5.37;;;7.90;1.00;;;;;;5039154;28;20232;-51
2021/05/08 05:49:09;;;;;;;7.20;5.50;;;8.00;1.00;;;;;;5039692;28;20227;-52
2021/05/08 05:51:35;;;;;;;11.50;5.67;;;8.00;1.00;;;;;;5038301;28;20212;-51
2021/05/08 05:54:01;;;;;;;8.77;6.20;;;8.10;1.00;;;;;;5033815;28;20248;-52
2021/05/08 05:56:28;;;;;;;7.97;6.27;;;8.20;1.00;;;;;;5039333;28;20717;-52
2021/05/08 05:58:55;;;;;;;9.07;6.40;;;8.30;1.00;;;;;;5039391;28;20250;-52
2021/05/08 06:01:21;;;;;;;7.50;5.87;;;8.40;1.00;;;;;;5033851;28;20212;-52
2021/05/08 06:03:48;;;;;;;8.83;6.37;;;8.40;1.00;;;;;;5039226;28;20268;-52
2021/05/08 06:06:15;;;;;;;8.17;5.97;;;8.40;1.00;;;;;;5038710;28;20689;-52
2021/05/08 06:08:41;;;;;;;7.23;5.37;;;8.50;1.00;;;;;;5033772;28;20253;-52
2021/05/08 06:11:07;;;;;;;7.83;5.60;;;8.50;83.00;;;;;;5039289;28;20282;-51
2021/05/08 06:13:34;;;;;;;10.23;5.83;;;8.50;99.90;;;;;;5038375;28;20210;-51
2021/05/08 06:16:03;;;;;;;10.30;5.30;;;8.60;99.90;;;;;;5038385;28;20214;-51
2021/05/08 06:18:29;;;;;;;6.77;5.70;;;8.70;99.90;;;;;;5038543;28;20243;-52
2021/05/08 06:20:56;;;;;;;11.70;5.57;;;8.60;1.00;;;;;;5038515;28;20207;-52
2021/05/08 06:23:22;;;;;;;13.37;6.60;;;8.80;1.00;;;;;;5037701;28;20208;-52
2021/05/08 06:25:48;;;;;;;8.87;5.30;;;8.80;1.00;;;;;;5038794;28;20724;-51
2021/05/08 06:28:17;;;;;;;6.83;5.80;;;8.80;1.00;;;;;;5038101;28;20339;-52
2021/05/08 06:30:44;;;;;;;9.63;5.80;;;8.90;1.00;;;;;;5037553;28;20254;-52
2021/05/08 06:33:10;;;;;;;9.40;6.43;;;9.00;1.00;;;;;;5038739;28;20559;-52
2021/05/08 06:35:37;;;;;;;6.90;6.00;;;9.10;1.00;;;;;;5032547;28;20247;-52
2021/05/08 06:38:04;;;;;;;9.83;6.03;;;9.10;1.00;;;;;;5037699;28;20277;-52
2021/05/08 06:40:30;;;;;;;7.03;5.57;;;9.10;1.00;;;;;;5037938;28;20237;-52
2021/05/08 06:42:57;;;;;;;6.97;5.03;;;9.20;1.00;;;;;;5036384;28;20254;-52
2021/05/08 06:45:23;;;;;;;10.00;5.33;;;9.20;1.00;;;;;;5036775;28;20326;-51
2021/05/08 06:47:56;;;;;;;7.83;5.30;;;9.20;1.00;;;;;;5035357;28;20307;-52
2021/05/08 06:50:22;;;;;;;8.40;5.33;;;9.30;1.00;;;;;;5032827;28;20226;-51
2021/05/08 06:52:49;;;;;;;10.10;5.23;;;9.40;1.00;;;;;;5036615;28;20200;-51
2021/05/08 06:55:15;;;;;;;7.20;5.80;;;9.40;1.00;;;;;;5035292;28;20263;-52
2021/05/08 06:57:41;;;;;;;9.23;5.40;;;9.40;1.00;;;;;;5036122;28;20469;-52
2021/05/08 07:00:08;;;;;;;5.83;4.63;;;9.50;1.00;;;;;;5030999;28;20237;-52
2021/05/08 07:02:34;;;;;;;5.67;4.70;;;9.60;1.00;;;;;;5032591;28;20202;-49
2021/05/08 07:05:01;;;;;;;11.43;4.93;;;9.60;1.00;;;;;;5037914;28;20200;-50
2021/05/08 07:07:27;;;;;;;6.63;5.20;;;9.60;1.00;;;;;;5035332;28;20201;-50
2021/05/08 07:09:54;;;;;;;6.87;4.47;;;9.80;1.00;;;;;;5036628;28;20230;-50
2021/05/08 07:12:20;;;;;;;7.77;5.20;;;9.80;1.00;;;;;;5035802;28;20309;-50
2021/05/08 07:14:47;;;;;;;8.97;5.00;;;9.80;1.00;;;;;;5036593;28;20339;-49
2021/05/08 07:17:13;;;;;;;8.30;4.23;;;9.90;1.00;;;;;;5036287;28;20248;-51
2021/05/08 07:19:41;;;;;;;8.30;4.47;;;9.90;99.90;;;;;;5036733;28;20528;-48
2021/05/08 07:22:07;;;;;;;6.67;4.27;;;10.00;99.90;;;;;;5036158;28;20647;-48
2021/05/08 07:24:34;;;;;;;5.13;4.13;;;10.10;99.90;;;;;;5036478;28;20270;-48
2021/05/08 07:27:04;;;;;;;5.40;3.97;;;10.10;63.70;;;;;;5035733;28;20232;-49
2021/05/08 07:29:30;;;;;;;6.47;4.10;;;10.10;99.90;;;;;;5035963;28;20261;-49
2021/05/08 07:31:59;;;;;;;5.77;3.67;;;10.10;99.90;;;;;;5031165;28;20243;-51
2021/05/08 07:34:25;;;;;;;6.20;3.90;;;10.20;99.90;;;;;;5035172;28;20243;-49
2021/05/08 07:36:52;;;;;;;5.33;3.87;;;10.20;99.90;;;;;;5035475;28;20253;-49
2021/05/08 07:39:18;;;;;;;6.37;3.50;;;10.20;1.00;;;;;;5035705;28;20569;-51
2021/05/08 07:41:44;;;;;;;5.07;3.50;;;10.10;99.90;;;;;;5035735;28;20546;-48
2021/05/08 07:44:11;;;;;;;6.37;3.43;;;10.20;1.00;;;;;;5036172;28;20620;-51
2021/05/08 07:46:37;;;;;;;6.97;3.93;;;10.30;1.00;;;;;;5035369;28;20207;-51
2021/05/08 07:49:04;;;;;;;10.00;3.80;;;10.30;98.20;;;;;;5036849;28;20637;-50
2021/05/08 07:51:30;;;;;;;6.47;3.77;;;10.50;99.90;;;;;;5035167;28;20567;-51
2021/05/08 07:53:56;;;;;;;4.47;3.40;;;10.60;99.90;;;;;;5036363;28;20245;-50
2021/05/08 07:56:22;;;;;;;6.07;4.27;;;10.50;1.00;;;;;;5034412;28;20203;-50
2021/05/08 07:58:49;;;;;;;5.17;3.37;;;10.50;1.00;;;;;;5031137;28;20653;-50
2021/05/08 08:01:15;;;;;;;5.33;3.33;;;10.70;99.90;;;;;;5033330;28;20213;-50
2021/05/08 08:03:41;;;;;;;7.13;4.07;;;10.60;1.00;;;;;;5036613;28;20304;-50
2021/05/08 08:06:08;;;;;;;5.93;3.53;;;10.60;1.00;;;;;;5035019;28;20242;-50
2021/05/08 08:08:34;;;;;;;5.67;3.67;;;10.70;1.00;;;;;;5034866;28;20271;-50
2021/05/08 08:11:00;;;;;;;7.57;3.70;;;10.70;1.00;;;;;;5035289;28;20304;-50
2021/05/08 08:13:27;;;;;;;4.80;3.53;;;10.90;1.00;;;;;;5036045;28;20229;-50
2021/05/08 08:15:53;;;;;;;5.80;3.70;;;10.90;1.00;;;;;;5033974;28;20252;-50
2021/05/08 08:18:20;;;;;;;4.43;2.93;;;10.90;1.00;;;;;;5036290;28;20295;-50
2021/05/08 08:20:46;;;;;;;5.33;3.40;;;11.10;1.00;;;;;;5035507;28;20686;-49
2021/05/08 08:23:13;;;;;;;4.63;2.73;;;11.10;1.00;;;;;;5035175;28;20218;-50
2021/05/08 08:25:40;;;;;;;3.83;3.20;;;11.20;1.00;;;;;;5037014;28;20267;-50
2021/05/08 08:28:06;;;;;;;5.93;3.90;;;11.30;1.00;;;;;;5035965;28;20251;-50
2021/05/08 08:30:32;;;;;;;4.63;3.33;;;11.40;1.00;;;;;;5029826;28;20726;-50
2021/05/08 08:32:59;;;;;;;5.47;2.90;;;11.40;1.00;;;;;;5034531;28;20253;-49
2021/05/08 08:35:25;;;;;;;4.13;3.03;;;11.40;1.00;;;;;;5036439;28;20234;-51
2021/05/08 08:37:53;;;;;;;5.57;3.10;;;11.60;1.00;;;;;;5034403;28;20241;-50
2021/05/08 08:40:21;;;;;;;4.27;3.17;;;11.70;1.00;;;;;;5036066;28;20230;-50
2021/05/08 08:42:47;;;;;;;4.37;2.93;;;11.80;1.00;;;;;;5036434;28;20241;-50
2021/05/08 08:45:14;;;;;;;5.00;2.83;;;11.80;1.00;;;;;;5034812;28;20614;-50
2021/05/08 08:47:42;;;;;;;5.13;2.97;;;11.80;1.00;;;;;;5035170;28;20212;-49
2021/05/08 08:50:13;;;;;;;6.67;3.20;;;12.00;1.00;;;;;;5035486;28;20219;-50
2021/05/08 08:52:39;;;;;;;4.23;2.83;;;12.20;1.00;;;;;;5028689;28;20686;-49
2021/05/08 08:55:08;;;;;;;5.00;2.93;;;12.20;1.00;;;;;;5035583;28;20571;-50
2021/05/08 08:57:38;;;;;;;5.27;3.03;;;12.10;1.00;;;;;;5034350;28;20215;-52
2021/05/08 09:00:07;;;;;;;6.37;2.80;;;12.10;1.00;;;;;;5033635;28;20261;-50
2021/05/08 09:02:33;;;;;;;4.10;2.73;;;12.30;1.00;;;;;;5037729;28;20341;-49
2021/05/08 09:05:00;;;;;;;5.97;2.97;;;12.50;1.00;;;;;;5039178;28;20302;-49
2021/05/08 09:07:29;;;;;;;4.30;2.40;;;12.70;1.00;;;;;;5037785;28;20627;-50
2021/05/08 09:09:56;;;;;;;4.80;2.60;;;12.70;1.00;;;;;;5039278;28;20263;-49
2021/05/08 09:12:28;;;;;;;5.07;2.30;;;12.80;1.00;;;;;;5037428;28;20242;-50
2021/05/08 09:14:55;;;;;;;5.40;2.47;;;12.80;1.00;;;;;;5039041;28;20206;-50
2021/05/08 09:17:25;;;;;;;5.40;2.10;;;12.90;1.00;;;;;;5039042;28;20235;-49
2021/05/08 09:20:01;;;;;;;5.33;2.50;;;13.00;1.00;;;;;;5038893;28;20237;-50
2021/05/08 09:22:32;;;;;;;4.00;2.23;;;12.90;1.00;;;;;;5037077;28;20204;-50
2021/05/08 09:25:01;;;;;;;3.60;2.20;;;12.80;1.00;;;;;;5038088;28;20702;-50
2021/05/08 09:27:44;;;;;;;4.73;2.83;;;13.00;99.90;;;;;;5054147;28;20232;-50
2021/05/08 09:30:13;;;;;;;3.27;2.27;;;13.00;1.00;;;;;;5037707;28;20586;-50
2021/05/08 09:32:44;;;;;;;4.63;2.00;;;12.90;99.90;;;;;;5039378;28;20601;-50
2021/05/08 09:35:14;;;;;;;5.40;2.40;;;12.90;99.90;;;;;;5038289;28;20204;-50
2021/05/08 09:37:41;;;;;;;3.57;2.27;;;13.00;1.00;;;;;;5038336;28;20196;-50
2021/05/08 09:40:20;;;;;;;6.00;3.10;;;13.10;1.00;;;;;;5037343;28;20341;-51
2021/05/08 09:42:54;;;;;;;4.70;2.60;;;13.20;1.00;;;;;;5037609;28;20248;-51
2021/05/08 09:45:23;;;;;;;3.57;2.47;;;13.30;1.00;;;;;;5032160;28;20277;-50
2021/05/08 09:47:50;;;;;;;2.63;1.90;;;13.20;1.00;;;;;;5037499;28;20216;-51
2021/05/08 09:50:24;;;;;;;3.90;2.00;;;13.20;1.00;;;;;;5038434;28;20208;-51
2021/05/08 09:52:56;;;;;;;2.10;1.70;;;13.00;1.00;;;;;;5032121;28;20236;-50
2021/05/08 09:55:25;;;;;;;3.20;2.13;;;13.00;1.00;;;;;;5037746;28;20236;-50
2021/05/08 09:57:55;;;;;;;5.37;1.83;;;13.00;1.00;;;;;;5037372;28;20201;-50
2021/05/08 10:00:33;;;;;;;5.10;1.80;;;13.00;1.00;;;;;;5036553;28;20264;-50
2021/05/08 10:03:14;;;;;;;3.07;1.83;;;13.00;1.00;;;;;;5038656;28;20201;-49
2021/05/08 10:05:49;;;;;;;3.17;2.00;;;13.00;1.00;;;;;;5052498;28;20213;-50
2021/05/08 10:08:16;;;;;;;3.27;2.17;;;13.00;1.00;;;;;;5032641;28;20220;-50
2021/05/08 10:10:43;;;;;;;5.90;1.87;;;13.10;1.00;;;;;;5032640;28;20257;-50
2021/05/08 10:13:12;;;;;;;2.70;1.90;;;13.00;1.00;;;;;;5037561;28;20241;-50
2021/05/08 10:15:40;;;;;;;3.57;1.70;;;13.00;1.00;;;;;;5036582;28;20718;-51
2021/05/08 10:18:14;;;;;;;2.17;1.50;;;13.10;1.00;;;;;;5037891;28;20206;-51
2021/05/08 10:20:42;;;;;;;3.17;1.87;;;13.00;1.00;;;;;;5031437;28;20278;-51
2021/05/08 10:23:11;;;;;;;3.50;1.97;;;12.90;1.00;;;;;;5037857;28;20237;-50
2021/05/08 10:25:39;;;;;;;3.40;1.70;;;12.80;1.00;;;;;;5032573;28;21127;-51
2021/05/08 10:28:06;;;;;;;2.40;1.47;;;12.60;10.20;;;;;;5037311;28;20228;-50
2021/05/08 10:30:40;;;;;;;2.80;1.60;;;12.60;99.90;;;;;;5036795;28;20246;-50
2021/05/08 10:33:15;;;;;;;3.20;1.57;;;12.50;1.00;;;;;;5036949;28;20216;-51
2021/05/08 10:35:43;;;;;;;4.13;1.53;;;12.40;99.90;;;;;;5037274;28;20277;-49
2021/05/08 10:38:12;;;;;;;3.20;1.60;;;12.20;1.00;;;;;;5036343;28;20214;-49
2021/05/08 10:40:59;;;;;;;2.00;1.50;;;12.30;99.90;;;;;;5037290;28;20198;-49
2021/05/08 10:43:51;;;;;;;3.10;1.60;;;12.30;1.00;;;;;;5037578;28;20650;-49
2021/05/08 10:46:20;;;;;;;2.50;1.67;;;12.30;1.00;;;;;;5035395;28;20680;-49
2021/05/08 10:49:06;;;;;;;1.90;1.67;;;12.10;99.90;;;;;;5037218;28;20307;-50
2021/05/08 10:51:59;;;;;;;3.47;1.70;;;12.30;1.00;;;;;;5035747;28;20661;-50
2021/05/08 10:54:42;;;;;;;4.03;2.40;;;12.10;1.00;;;;;;5036759;28;20213;-49
2021/05/08 10:57:24;;;;;;;2.70;2.00;;;12.10;1.00;;;;;;5037533;28;20696;-49
2021/05/08 11:00:04;;;;;;;2.33;1.80;;;12.10;1.00;;;;;;5035518;28;20216;-50
2021/05/08 11:02:45;;;;;;;4.70;2.03;;;12.20;99.90;;;;;;5037030;28;20204;-49
2021/05/08 11:05:30;;;;;;;2.13;1.80;;;12.10;99.90;;;;;;5036608;28;20205;-49
2021/05/08 11:07:57;;;;;;;4.57;1.90;;;12.00;1.00;;;;;;5036141;28;20289;-49
2021/05/08 11:10:38;;;;;;;2.37;1.70;;;11.90;1.00;;;;;;5035082;28;20197;-49
2021/05/08 11:13:12;;;;;;;3.40;2.20;;;11.90;1.00;;;;;;5036969;28;20204;-49
2021/05/08 11:15:54;;;;;;;3.40;2.03;;;11.90;1.00;;;;;;5035108;28;20776;-50
2021/05/08 11:18:38;;;;;;;4.03;1.80;;;11.90;1.00;;;;;;5036462;28;20212;-50
2021/05/08 11:21:24;;;;;;;3.10;1.60;;;11.90;1.00;;;;;;5031620;28;20269;-49
2021/05/08 11:23:57;;;;;;;3.27;2.23;;;11.80;99.90;;;;;;5035574;28;20244;-51
2021/05/08 11:26:24;;;;;;;2.77;2.00;;;11.90;1.00;;;;;;5037177;28;20213;-49
2021/05/08 11:28:57;;;;;;;2.50;1.90;;;12.00;99.90;;;;;;5037096;28;20363;-49
2021/05/08 11:31:45;;;;;;;1.97;1.80;;;11.90;1.00;;;;;;5035037;28;20204;-49
2021/05/08 11:34:19;;;;;;;2.53;1.63;;;11.90;1.00;;;;;;5026978;28;20270;-50
2021/05/08 11:37:11;;;;;;;3.80;1.77;;;11.70;1.00;;;;;;5027122;28;20321;-50
2021/05/08 11:39:45;;;;;;;3.67;2.00;;;11.60;1.00;;;;;;5028449;28;20211;-50
2021/05/08 11:42:18;;;;;;;2.33;1.77;;;11.60;1.00;;;;;;5029969;28;20312;-49
2021/05/08 11:44:54;;;;;;;1.97;1.50;;;11.60;1.00;;;;;;5032273;28;20246;-50
2021/05/08 11:47:28;;;;;;;3.33;2.17;;;11.70;99.90;;;;;;5034777;28;20290;-50
2021/05/08 11:50:05;;;;;;;4.13;1.80;;;11.70;99.90;;;;;;5033489;28;20299;-50
2021/05/08 11:52:40;;;;;;;3.27;1.90;;;11.60;99.90;;;;;;5032474;28;20228;-50
2021/05/08 11:55:12;;;;;;;2.10;1.80;;;11.60;99.90;;;;;;5029226;28;20237;-50
2021/05/08 11:57:49;;;;;;;4.20;2.10;;;11.40;99.90;;;;;;5029090;28;20258;-50
2021/05/08 12:00:21;;;;;;;2.37;1.80;;;11.40;1.00;;;;;;5029185;28;20789;-50
2021/05/08 12:02:49;;;;;;;3.70;2.20;;;11.40;99.90;;;;;;5032393;28;20255;-50
2021/05/08 12:05:16;;;;;;;6.53;1.60;;;11.50;1.00;;;;;;5031324;28;20205;-50
2021/05/08 12:07:43;;;;;;;2.83;2.20;;;11.60;1.00;;;;;;5031787;28;20575;-50
2021/05/08 12:10:19;;;;;;;6.43;2.37;;;11.60;1.00;;;;;;5031534;28;20679;-50
2021/05/08 12:12:45;;;;;;;3.13;1.80;;;11.50;99.90;;;;;;5031710;28;20292;-50
2021/05/08 12:15:22;;;;;;;2.97;2.47;;;11.50;1.00;;;;;;5031859;28;20206;-50
2021/05/08 12:17:51;;;;;;;2.87;2.17;;;11.50;1.00;;;;;;5029953;28;20215;-50
2021/05/08 12:20:29;;;;;;;3.33;2.27;;;11.40;1.00;;;;;;5029908;28;20256;-50
2021/05/08 12:23:00;;;;;;;2.53;2.33;;;11.30;1.00;;;;;;5025079;28;20515;-50
2021/05/08 12:25:27;;;;;;;4.50;2.00;;;11.50;1.00;;;;;;5028554;28;20671;-50
2021/05/08 12:28:33;;;;;;;2.87;2.53;;;11.70;1.00;;;;;;5026115;28;20682;-50
2021/05/08 12:31:17;;;;;;;4.80;2.60;;;11.70;1.00;;;;;;5038177;28;20289;-51
2021/05/08 12:33:45;;;;;;;2.87;2.23;;;11.80;1.00;;;;;;5027887;28;20259;-50
2021/05/08 12:36:16;;;;;;;3.20;2.43;;;11.80;1.00;;;;;;5035727;28;20379;-50
2021/05/08 12:38:44;;;;;;;4.13;2.60;;;11.90;1.00;;;;;;5039646;28;20221;-50
2021/05/08 12:41:30;;;;;;;2.70;2.50;;;11.90;1.00;;;;;;5011926;28;20202;-52
2021/05/08 12:44:05;;;;;;;2.80;2.50;;;12.00;99.90;;;;;;5044407;28;20234;-49
2021/05/08 12:46:58;;;;;;;5.33;3.10;;;11.90;1.00;;;;;;5037747;28;20210;-49
2021/05/08 12:49:28;;;;;;;4.70;2.80;;;12.00;99.90;;;;;;5042511;28;20249;-50
2021/05/08 12:51:55;;;;;;;4.20;2.50;;;12.10;1.00;;;;;;5032582;28;20292;-50
2021/05/08 12:54:31;;;;;;;3.97;2.50;;;12.10;99.90;;;;;;5037895;28;20233;-49
2021/05/08 12:57:12;;;;;;;3.90;2.33;;;12.00;1.00;;;;;;5037972;28;20252;-50
2021/05/08 12:59:38;;;;;;;3.57;2.30;;;12.10;1.00;;;;;;5036657;28;20679;-50
2021/05/08 13:02:17;;;;;;;3.23;2.30;;;12.20;1.00;;;;;;5034424;28;21950;-49
2021/05/08 13:04:49;;;;;;;4.40;2.60;;;12.20;53.30;;;;;;5042595;28;20211;-49
2021/05/08 13:07:29;;;;;;;3.90;2.43;;;12.20;1.00;;;;;;5030854;28;20231;-49